Boron, California
Current Conditions -  °F | °C
As of 2:55 PM on Saturday 25 Oct 2014 (Local Time) from K9L2 Reporting Station
Clear Clear  
Wind Chill: 80°   Ceiling: Unl
Heat Index: 80°   Visibility: 10mi
Dew Point: 38°   Wind: 24mph
Humidity: 22%   Direction: 230°SW
Pressure: 30.02"   Gusts: 32mph
Location:  35°N, 117.65°W
Report Text: K9L2 252155Z AUTO 23021G28KT 10SM CLR 27/03 A3002 RMK AO2 PK WND 22029/2140 SLP155 T02670033 $
Loading
Personal Weather Stations






























Interactive Weather Map
Tropical Storm Tracking
New forecast layout! Learn more

10-Day Weather Forecast

Advertisements
Track Severe Weather on mobile